Time;durP1;ratioP1;P1;durP2;ratioP2;P2;SDS_P1;SDS_P2;PMS_P1;PMS_P2;Temp;Humidity;BMP_temperature;BMP_pressure;BME280_temperature;BME280_humidity;BME280_pressure;Samples;Min_cycle;Max_cycle;Signal;HPM_P1;HPM_P2
2021/09/12 00:02:21;;;;;;;14.77;9.73;;;18.90;99.90;;;;;;5053469;28;20415;-78
2021/09/12 00:04:47;;;;;;;16.00;9.77;;;18.90;99.90;;;;;;5053052;28;20686;-79
2021/09/12 00:07:12;;;;;;;12.50;9.27;;;18.90;99.90;;;;;;5053240;28;20564;-79
2021/09/12 00:09:38;;;;;;;13.80;9.73;;;18.90;99.90;;;;;;5053410;28;20180;-78
2021/09/12 00:12:06;;;;;;;12.73;8.97;;;18.90;99.90;;;;;;5053411;28;20295;-78
2021/09/12 00:14:31;;;;;;;10.97;8.00;;;18.90;99.90;;;;;;5053040;28;20465;-78
2021/09/12 00:16:57;;;;;;;13.17;9.33;;;18.90;99.90;;;;;;5051722;28;20478;-78
2021/09/12 00:19:24;;;;;;;15.40;9.70;;;18.90;99.90;;;;;;5051828;28;20223;-78
2021/09/12 00:21:50;;;;;;;13.90;9.70;;;19.00;99.90;;;;;;5053030;28;20183;-78
2021/09/12 00:24:16;;;;;;;17.87;10.00;;;18.90;99.90;;;;;;5052849;28;20557;-78
2021/09/12 00:26:41;;;;;;;11.63;8.70;;;18.90;99.90;;;;;;5053104;28;20450;-79
2021/09/12 00:29:07;;;;;;;13.37;9.53;;;18.90;99.90;;;;;;5052678;28;20241;-78
2021/09/12 00:31:32;;;;;;;14.90;10.27;;;18.80;99.90;;;;;;5053001;28;20196;-78
2021/09/12 00:34:01;;;;;;;13.43;8.60;;;18.80;99.90;;;;;;5052834;28;20181;-77
2021/09/12 00:36:26;;;;;;;13.87;10.40;;;18.80;99.90;;;;;;5052732;28;20291;-78
2021/09/12 00:38:52;;;;;;;13.77;8.97;;;18.80;99.90;;;;;;5051525;28;20510;-79
2021/09/12 00:41:17;;;;;;;12.73;8.90;;;18.80;99.90;;;;;;5052613;28;20181;-78
2021/09/12 00:43:43;;;;;;;14.40;9.87;;;18.80;99.90;;;;;;5052448;28;20582;-78
2021/09/12 00:46:09;;;;;;;17.43;10.80;;;18.80;99.90;;;;;;5052557;28;20199;-78
2021/09/12 00:48:35;;;;;;;12.00;9.00;;;18.70;99.90;;;;;;5052547;28;20185;-79
2021/09/12 00:51:02;;;;;;;16.00;10.10;;;18.70;99.90;;;;;;5052525;28;20195;-79
2021/09/12 00:53:31;;;;;;;12.90;9.80;;;18.70;99.90;;;;;;5052229;28;20408;-78
2021/09/12 00:56:00;;;;;;;14.57;9.63;;;18.70;99.90;;;;;;5050901;28;20465;-79
2021/09/12 00:58:27;;;;;;;13.60;9.63;;;18.70;99.90;;;;;;5052575;28;20415;-78
2021/09/12 01:00:53;;;;;;;16.30;9.93;;;18.70;99.90;;;;;;5052732;28;20494;-78
2021/09/12 01:03:19;;;;;;;16.60;11.17;;;18.70;99.90;;;;;;5053380;28;20446;-78
2021/09/12 01:05:46;;;;;;;14.57;9.80;;;18.60;99.90;;;;;;5050697;28;20212;-79
2021/09/12 01:08:12;;;;;;;15.50;10.70;;;18.60;99.90;;;;;;5051068;28;20184;-78
2021/09/12 01:10:40;;;;;;;15.93;9.80;;;18.60;99.90;;;;;;5052767;28;20423;-78
2021/09/12 01:13:05;;;;;;;17.63;9.87;;;18.50;99.90;;;;;;5052039;28;20651;-78
2021/09/12 01:15:31;;;;;;;18.57;10.60;;;18.50;99.90;;;;;;5052015;28;20439;-77
2021/09/12 01:17:58;;;;;;;14.00;10.80;;;18.50;99.90;;;;;;5050507;28;20173;-77
2021/09/12 01:20:23;;;;;;;12.27;9.17;;;18.50;99.90;;;;;;5052103;28;20485;-77
2021/09/12 01:22:49;;;;;;;16.40;10.43;;;18.50;99.90;;;;;;5051970;28;20445;-78
2021/09/12 01:25:16;;;;;;;13.73;10.20;;;18.50;99.90;;;;;;5051724;28;20559;-78
2021/09/12 01:27:42;;;;;;;14.63;9.93;;;18.50;99.90;;;;;;5051727;28;20804;-78
2021/09/12 01:30:08;;;;;;;13.53;9.60;;;18.50;99.90;;;;;;5050244;28;20415;-78
2021/09/12 01:32:34;;;;;;;13.67;9.03;;;18.40;99.90;;;;;;5051672;28;20429;-78
2021/09/12 01:34:59;;;;;;;14.73;9.27;;;18.40;99.90;;;;;;5051587;28;20518;-78
2021/09/12 01:37:25;;;;;;;14.27;9.47;;;18.40;99.90;;;;;;5051563;28;20450;-78
2021/09/12 01:39:51;;;;;;;17.90;11.23;;;18.40;99.90;;;;;;5051964;28;20204;-78
2021/09/12 01:42:17;;;;;;;15.10;10.10;;;18.40;99.90;;;;;;5050565;28;20182;-78
2021/09/12 01:44:50;;;;;;;12.67;9.90;;;18.40;99.90;;;;;;5050083;28;20644;-78
2021/09/12 01:47:16;;;;;;;11.70;8.50;;;18.40;99.90;;;;;;5050258;28;20203;-79
2021/09/12 01:49:43;;;;;;;15.40;9.47;;;18.40;99.90;;;;;;5051754;28;20403;-79
2021/09/12 01:52:13;;;;;;;15.60;9.47;;;18.40;99.90;;;;;;5051930;28;20829;-78
2021/09/12 01:54:39;;;;;;;12.17;8.30;;;18.30;99.90;;;;;;5050155;28;20434;-78
2021/09/12 01:57:05;;;;;;;14.47;9.23;;;18.30;99.90;;;;;;5051847;28;20581;-78
2021/09/12 01:59:31;;;;;;;12.37;8.87;;;18.30;99.90;;;;;;5051651;28;20172;-78
2021/09/12 02:01:56;;;;;;;14.43;9.70;;;18.30;99.90;;;;;;5051808;28;20407;-78
2021/09/12 02:04:21;;;;;;;14.70;10.33;;;18.30;99.90;;;;;;5055163;28;20659;-79
2021/09/12 02:06:47;;;;;;;17.77;10.53;;;18.30;99.90;;;;;;5055784;28;20287;-77
2021/09/12 02:09:12;;;;;;;15.47;9.40;;;18.20;99.90;;;;;;5058894;28;20206;-78
2021/09/12 02:11:38;;;;;;;14.40;10.13;;;18.20;99.90;;;;;;5058554;28;20172;-79
2021/09/12 02:14:04;;;;;;;13.27;10.03;;;18.20;99.90;;;;;;5057881;28;20172;-78
2021/09/12 02:16:30;;;;;;;19.73;9.80;;;18.20;99.90;;;;;;5055681;28;20284;-78
2021/09/12 02:18:55;;;;;;;17.90;11.07;;;18.20;99.90;;;;;;5057507;28;20187;-78
2021/09/12 02:21:21;;;;;;;14.50;9.80;;;18.20;99.90;;;;;;5057603;28;20196;-79
2021/09/12 02:23:46;;;;;;;12.73;9.03;;;18.20;99.90;;;;;;5057829;28;20226;-79
2021/09/12 02:26:12;;;;;;;14.73;9.60;;;18.10;99.90;;;;;;5056066;28;20206;-78
2021/09/12 02:28:38;;;;;;;15.57;9.43;;;18.10;99.90;;;;;;5056401;28;20535;-78
2021/09/12 02:31:03;;;;;;;13.53;10.13;;;18.20;99.90;;;;;;5056468;28;20187;-78
2021/09/12 02:33:29;;;;;;;17.90;10.30;;;18.10;99.90;;;;;;5038418;28;20183;-78
2021/09/12 02:35:54;;;;;;;19.23;9.30;;;18.10;99.90;;;;;;5057179;28;20215;-78
2021/09/12 02:38:20;;;;;;;11.30;8.77;;;18.10;99.90;;;;;;5055517;28;20172;-78
2021/09/12 02:40:45;;;;;;;13.83;9.30;;;18.10;99.90;;;;;;5057470;28;20631;-78
2021/09/12 02:43:11;;;;;;;15.97;10.83;;;18.10;99.90;;;;;;5055648;28;20187;-79
2021/09/12 02:45:37;;;;;;;16.17;10.43;;;18.10;99.90;;;;;;5055974;28;20196;-79
2021/09/12 02:48:05;;;;;;;14.67;9.47;;;18.10;99.90;;;;;;5056597;28;20165;-78
2021/09/12 02:50:31;;;;;;;14.90;9.97;;;18.10;99.90;;;;;;5056368;28;20418;-79
2021/09/12 02:52:57;;;;;;;12.40;9.10;;;18.10;99.90;;;;;;5056348;28;20430;-79
2021/09/12 02:55:23;;;;;;;14.30;10.70;;;18.10;99.90;;;;;;5056240;28;20185;-77
2021/09/12 02:57:48;;;;;;;13.63;9.90;;;18.10;99.90;;;;;;5055475;28;20699;-78
2021/09/12 03:00:14;;;;;;;15.40;9.97;;;18.10;99.90;;;;;;5056843;28;20422;-78
2021/09/12 03:02:40;;;;;;;17.30;10.37;;;18.10;99.90;;;;;;5057479;28;20201;-78
2021/09/12 03:05:06;;;;;;;12.87;9.83;;;18.10;99.90;;;;;;5057300;28;20443;-78
2021/09/12 03:07:32;;;;;;;15.87;11.20;;;18.10;99.90;;;;;;5055006;28;20187;-78
2021/09/12 03:09:57;;;;;;;14.10;9.80;;;18.10;99.90;;;;;;5055829;28;20415;-79
2021/09/12 03:12:23;;;;;;;16.10;10.30;;;18.10;99.90;;;;;;5055401;28;20187;-78
2021/09/12 03:14:48;;;;;;;16.13;10.37;;;18.10;99.90;;;;;;5057346;28;20256;-78
2021/09/12 03:17:14;;;;;;;15.50;9.50;;;18.00;99.90;;;;;;5039259;28;20192;-78
2021/09/12 03:19:39;;;;;;;14.37;10.43;;;18.00;99.90;;;;;;5055438;28;20534;-79
2021/09/12 03:22:05;;;;;;;17.37;11.57;;;18.00;99.90;;;;;;5057262;28;20531;-78
2021/09/12 03:24:31;;;;;;;15.10;9.60;;;18.10;99.90;;;;;;5056577;28;20679;-78
2021/09/12 03:26:56;;;;;;;15.80;10.90;;;18.00;99.90;;;;;;5056935;28;20190;-78
2021/09/12 03:29:22;;;;;;;16.00;10.50;;;18.00;99.90;;;;;;5054999;28;20188;-78
2021/09/12 03:31:47;;;;;;;14.47;9.67;;;18.00;99.90;;;;;;5056023;28;20264;-77
2021/09/12 03:34:13;;;;;;;14.47;10.63;;;18.00;99.90;;;;;;5055495;28;20183;-78
2021/09/12 03:36:38;;;;;;;15.23;10.50;;;18.00;99.90;;;;;;5054266;28;20203;-78
2021/09/12 03:39:04;;;;;;;14.13;9.47;;;18.00;99.90;;;;;;5054845;28;20188;-79
2021/09/12 03:41:30;;;;;;;14.23;9.17;;;17.90;99.90;;;;;;5055387;28;20207;-78
2021/09/12 03:43:55;;;;;;;13.27;8.60;;;17.90;99.90;;;;;;5054422;28;20176;-78
2021/09/12 03:46:21;;;;;;;14.83;10.00;;;17.80;99.90;;;;;;5055648;28;20246;-78
2021/09/12 03:48:46;;;;;;;14.63;10.30;;;17.80;99.90;;;;;;5055263;28;20202;-79
2021/09/12 03:51:12;;;;;;;14.80;10.53;;;17.80;99.90;;;;;;5055707;28;20183;-78
2021/09/12 03:53:38;;;;;;;13.03;9.00;;;17.70;99.90;;;;;;5055608;28;20262;-79
2021/09/12 03:56:04;;;;;;;14.97;9.87;;;17.70;99.90;;;;;;5054455;28;20494;-79
2021/09/12 03:58:29;;;;;;;16.77;8.77;;;17.70;99.90;;;;;;5054513;28;20181;-78
2021/09/12 04:00:55;;;;;;;15.03;10.33;;;17.80;99.90;;;;;;5054508;28;20478;-78
2021/09/12 04:03:20;;;;;;;17.40;11.33;;;17.80;99.90;;;;;;5056950;28;20237;-79
2021/09/12 04:05:46;;;;;;;13.83;9.40;;;17.80;99.90;;;;;;5056029;28;20230;-78
2021/09/12 04:08:11;;;;;;;12.93;8.90;;;17.80;99.90;;;;;;5056489;28;20182;-79
2021/09/12 04:10:37;;;;;;;17.27;11.00;;;17.80;99.90;;;;;;5054918;28;20179;-79
2021/09/12 04:13:02;;;;;;;12.83;9.73;;;17.80;99.90;;;;;;5054760;28;20179;-78
2021/09/12 04:15:28;;;;;;;15.70;10.63;;;17.80;99.90;;;;;;5055769;28;20203;-78
2021/09/12 04:17:53;;;;;;;19.70;9.73;;;17.80;99.90;;;;;;5055090;28;20186;-78
2021/09/12 04:20:19;;;;;;;12.90;8.87;;;17.80;99.90;;;;;;5056732;28;20168;-79
2021/09/12 04:22:45;;;;;;;13.27;9.37;;;17.80;99.90;;;;;;5057902;28;20176;-78
2021/09/12 04:25:10;;;;;;;11.50;9.30;;;17.80;99.90;;;;;;5057522;28;20195;-78
2021/09/12 04:27:36;;;;;;;15.83;10.70;;;17.80;99.90;;;;;;5056087;28;20181;-77
2021/09/12 04:30:02;;;;;;;12.83;9.23;;;17.80;99.90;;;;;;5058976;28;20182;-78
2021/09/12 04:32:29;;;;;;;15.37;10.27;;;17.80;99.90;;;;;;5061107;28;20188;-77
2021/09/12 04:34:54;;;;;;;12.97;8.63;;;17.80;99.90;;;;;;5061775;28;20452;-77
2021/09/12 04:37:20;;;;;;;14.90;9.73;;;17.80;99.90;;;;;;5056177;28;21012;-77
2021/09/12 04:39:45;;;;;;;13.00;9.10;;;17.80;99.90;;;;;;5052661;28;20219;-77
2021/09/12 04:42:11;;;;;;;13.20;9.20;;;17.80;99.90;;;;;;5052436;28;20177;-77
2021/09/12 04:44:36;;;;;;;16.23;9.77;;;17.80;99.90;;;;;;5051942;28;20210;-78
2021/09/12 04:47:02;;;;;;;13.50;9.27;;;17.80;99.90;;;;;;5052361;28;20235;-78
2021/09/12 04:49:27;;;;;;;17.33;10.30;;;17.80;99.90;;;;;;5052401;28;20207;-77
2021/09/12 04:51:53;;;;;;;15.07;8.97;;;17.70;99.90;;;;;;5050977;28;20181;-78
2021/09/12 04:54:18;;;;;;;14.10;9.43;;;17.70;99.90;;;;;;5052060;28;20639;-78
2021/09/12 04:56:44;;;;;;;13.83;8.90;;;17.70;99.90;;;;;;5052125;28;20354;-79
2021/09/12 04:59:10;;;;;;;12.80;9.00;;;17.70;99.90;;;;;;5052404;28;20171;-78
2021/09/12 05:01:37;;;;;;;13.40;9.30;;;17.60;99.90;;;;;;5052193;28;20436;-77
2021/09/12 05:04:02;;;;;;;12.07;7.93;;;17.60;99.90;;;;;;5052155;28;20189;-78
2021/09/12 05:06:28;;;;;;;11.90;8.80;;;17.60;99.90;;;;;;5051902;28;20452;-79
2021/09/12 05:08:53;;;;;;;12.80;9.60;;;17.60;99.90;;;;;;5052229;28;20175;-78
2021/09/12 05:11:19;;;;;;;13.07;9.37;;;17.60;99.90;;;;;;5052278;28;20238;-78
2021/09/12 05:13:45;;;;;;;12.80;8.77;;;17.60;99.90;;;;;;5052393;28;20180;-79
2021/09/12 05:16:10;;;;;;;19.60;9.57;;;17.60;99.90;;;;;;5051060;28;20585;-78
2021/09/12 05:18:36;;;;;;;11.60;9.13;;;17.70;99.90;;;;;;5052485;28;20177;-77
2021/09/12 05:21:01;;;;;;;12.63;8.77;;;17.70;99.90;;;;;;5052226;28;20178;-78
2021/09/12 05:23:28;;;;;;;13.23;9.00;;;17.70;99.90;;;;;;5052076;28;20170;-78
2021/09/12 05:25:54;;;;;;;14.37;9.27;;;17.80;99.90;;;;;;5052030;28;20244;-78
2021/09/12 05:28:19;;;;;;;15.80;9.87;;;17.70;99.90;;;;;;5052098;28;20422;-79
2021/09/12 05:30:45;;;;;;;14.43;9.30;;;17.80;99.90;;;;;;5051710;28;20186;-78
2021/09/12 05:33:10;;;;;;;12.40;9.00;;;17.70;99.90;;;;;;5051647;28;20192;-78
2021/09/12 05:35:36;;;;;;;12.13;8.50;;;17.70;99.90;;;;;;5033805;28;20260;-78
2021/09/12 05:38:02;;;;;;;13.07;9.83;;;17.80;99.90;;;;;;5053683;28;20175;-79
2021/09/12 05:40:28;;;;;;;14.40;9.20;;;17.80;99.90;;;;;;5056021;28;20202;-78
2021/09/12 05:42:54;;;;;;;15.60;8.40;;;17.90;99.90;;;;;;5054960;28;20187;-80
2021/09/12 05:45:19;;;;;;;11.97;9.03;;;17.90;99.90;;;;;;5055938;28;20429;-80
2021/09/12 05:47:45;;;;;;;15.07;9.37;;;18.00;99.90;;;;;;5056541;28;20414;-78
2021/09/12 05:50:11;;;;;;;14.83;9.30;;;18.10;99.90;;;;;;5056147;28;20462;-78
2021/09/12 05:52:36;;;;;;;16.10;10.37;;;18.10;99.90;;;;;;5054930;28;20318;-79
2021/09/12 05:55:03;;;;;;;12.87;8.90;;;18.30;99.90;;;;;;5056053;28;20196;-79
2021/09/12 05:57:28;;;;;;;16.50;9.73;;;18.30;99.90;;;;;;5038331;28;20276;-79
2021/09/12 05:59:54;;;;;;;17.00;9.73;;;18.40;99.90;;;;;;5056185;28;20874;-79
2021/09/12 06:02:19;;;;;;;12.13;8.50;;;18.50;99.90;;;;;;5056242;28;20196;-79
2021/09/12 06:04:45;;;;;;;14.60;10.33;;;18.40;99.90;;;;;;5054698;28;20756;-79
2021/09/12 06:07:11;;;;;;;15.50;8.80;;;18.60;99.90;;;;;;5055972;28;20180;-79
2021/09/12 06:09:38;;;;;;;15.67;9.20;;;18.50;99.90;;;;;;5056433;28;20172;-79
2021/09/12 06:12:07;;;;;;;15.70;9.13;;;18.50;99.90;;;;;;5055643;28;20504;-79
2021/09/12 06:14:33;;;;;;;19.70;9.77;;;18.50;99.90;;;;;;5055007;28;20439;-78
2021/09/12 06:17:01;;;;;;;15.77;8.40;;;18.50;99.90;;;;;;5055414;28;20541;-78
2021/09/12 06:19:27;;;;;;;13.90;9.23;;;18.50;99.90;;;;;;5055567;28;20655;-78
2021/09/12 06:21:52;;;;;;;15.40;9.37;;;18.50;99.90;;;;;;5055543;28;20408;-79
2021/09/12 06:24:18;;;;;;;12.80;9.00;;;18.60;99.90;;;;;;5055179;28;20176;-78
2021/09/12 06:26:43;;;;;;;15.90;8.57;;;18.50;99.90;;;;;;5055460;28;20364;-79
2021/09/12 06:29:09;;;;;;;15.73;9.43;;;18.50;99.90;;;;;;5055583;28;20567;-79
2021/09/12 06:31:34;;;;;;;12.07;8.07;;;18.50;99.90;;;;;;5056419;28;20189;-80
2021/09/12 06:34:00;;;;;;;10.23;8.30;;;18.50;99.90;;;;;;5056724;28;20188;-78
2021/09/12 06:36:25;;;;;;;17.50;9.50;;;18.60;99.90;;;;;;5056295;28;20209;-78
2021/09/12 06:38:51;;;;;;;13.67;9.20;;;18.70;99.90;;;;;;5056546;28;20264;-79
2021/09/12 06:41:16;;;;;;;12.20;8.90;;;18.80;99.90;;;;;;5055267;28;20173;-79
2021/09/12 06:43:42;;;;;;;10.83;7.63;;;18.80;99.90;;;;;;5056874;28;20188;-79
2021/09/12 06:46:08;;;;;;;12.50;9.53;;;18.70;99.90;;;;;;5056292;28;20193;-78
2021/09/12 06:48:33;;;;;;;10.10;7.87;;;18.70;99.90;;;;;;5055463;28;20929;-79
2021/09/12 06:50:59;;;;;;;11.63;8.67;;;18.90;99.90;;;;;;5056277;28;20705;-79
2021/09/12 06:53:25;;;;;;;11.97;8.50;;;18.90;99.90;;;;;;5055966;28;20175;-80
2021/09/12 06:55:51;;;;;;;16.10;8.67;;;19.10;99.90;;;;;;5056389;28;20558;-80
2021/09/12 06:58:17;;;;;;;13.57;9.20;;;19.20;99.90;;;;;;5055384;28;20665;-78
2021/09/12 07:00:43;;;;;;;10.43;7.80;;;19.30;99.90;;;;;;5055341;28;20183;-79
2021/09/12 07:03:09;;;;;;;11.33;9.07;;;19.30;99.90;;;;;;5055931;28;20431;-79
2021/09/12 07:05:34;;;;;;;14.57;9.57;;;19.30;99.90;;;;;;5054584;28;20283;-79
2021/09/12 07:08:00;;;;;;;12.33;9.00;;;19.30;99.90;;;;;;5056632;28;20192;-79
2021/09/12 07:10:26;;;;;;;12.40;8.23;;;19.40;99.90;;;;;;5056799;28;20640;-79
2021/09/12 07:12:52;;;;;;;14.23;8.50;;;19.40;99.90;;;;;;5055977;28;20411;-79
2021/09/12 07:15:18;;;;;;;12.60;9.40;;;19.60;99.90;;;;;;5055959;28;20254;-80
2021/09/12 07:17:43;;;;;;;14.33;9.57;;;19.80;99.90;;;;;;5056394;28;20202;-80
2021/09/12 07:20:09;;;;;;;11.73;8.27;;;20.00;99.90;;;;;;5056663;28;20258;-78
2021/09/12 07:22:35;;;;;;;10.50;7.57;;;20.10;99.90;;;;;;5056039;28;20214;-79
2021/09/12 07:25:02;;;;;;;11.27;8.50;;;20.00;99.90;;;;;;5055780;28;20801;-79
2021/09/12 07:27:27;;;;;;;11.80;7.43;;;20.10;99.90;;;;;;5055821;28;20548;-80
2021/09/12 07:29:53;;;;;;;14.37;8.53;;;20.00;99.90;;;;;;5054545;28;20449;-79
2021/09/12 07:32:18;;;;;;;13.57;8.00;;;19.70;99.90;;;;;;5055641;28;20190;-79
2021/09/12 07:34:44;;;;;;;14.43;9.40;;;19.70;99.90;;;;;;5054753;28;20239;-79
2021/09/12 07:37:10;;;;;;;11.27;7.50;;;19.70;99.90;;;;;;5055982;28;20358;-80
2021/09/12 07:39:35;;;;;;;12.37;8.70;;;19.80;99.90;;;;;;5055288;28;20658;-79
2021/09/12 07:42:01;;;;;;;10.40;7.70;;;19.80;99.90;;;;;;5055827;28;20172;-79
2021/09/12 07:44:27;;;;;;;9.67;7.03;;;19.90;99.90;;;;;;5055086;28;20263;-81
2021/09/12 07:46:53;;;;;;;10.93;7.47;;;19.90;99.90;;;;;;5055656;28;20450;-80
2021/09/12 07:49:19;;;;;;;12.30;7.30;;;19.70;99.90;;;;;;5055495;28;20254;-79
2021/09/12 07:51:44;;;;;;;12.63;9.10;;;19.70;99.90;;;;;;5053079;28;20207;-78
2021/09/12 07:54:10;;;;;;;12.03;7.90;;;19.70;99.90;;;;;;5054093;28;20427;-78
2021/09/12 07:56:35;;;;;;;9.40;7.20;;;19.60;99.90;;;;;;5053974;28;20261;-79
2021/09/12 07:59:01;;;;;;;14.17;8.50;;;19.70;99.90;;;;;;5052909;28;20183;-80
2021/09/12 08:01:26;;;;;;;12.53;9.13;;;19.80;99.90;;;;;;5053925;28;20255;-79
2021/09/12 08:03:52;;;;;;;12.83;8.10;;;19.70;99.90;;;;;;5054189;28;20199;-79
2021/09/12 08:06:22;;;;;;;11.67;7.03;;;19.60;99.90;;;;;;5052748;28;20643;-78
2021/09/12 08:08:48;;;;;;;11.00;7.90;;;19.60;99.90;;;;;;5053541;28;20178;-77
2021/09/12 08:11:13;;;;;;;10.63;7.27;;;19.50;99.90;;;;;;5053717;28;20424;-78
2021/09/12 08:13:39;;;;;;;13.33;8.10;;;19.40;99.90;;;;;;5053075;28;20272;-78
2021/09/12 08:16:05;;;;;;;13.70;7.87;;;19.40;99.90;;;;;;5053975;28;20190;-78
2021/09/12 08:18:30;;;;;;;12.43;8.03;;;19.50;99.90;;;;;;5052105;28;20198;-78
2021/09/12 08:20:56;;;;;;;10.67;7.60;;;19.60;99.90;;;;;;5053090;28;20806;-77
2021/09/12 08:23:21;;;;;;;13.60;8.37;;;19.70;99.90;;;;;;5052852;28;20211;-79
2021/09/12 08:25:47;;;;;;;13.57;8.93;;;19.70;99.90;;;;;;5053216;28;20186;-78
2021/09/12 08:28:13;;;;;;;14.10;8.43;;;19.90;99.90;;;;;;5053905;28;20590;-79
2021/09/12 08:30:39;;;;;;;12.10;7.20;;;19.90;99.90;;;;;;5054729;28;20752;-78
2021/09/12 08:33:15;;;;;;;14.43;8.50;;;19.90;99.90;;;;;;5054275;28;20410;-78
2021/09/12 08:35:42;;;;;;;10.50;7.53;;;20.00;99.90;;;;;;5053097;28;20317;-79
2021/09/12 08:38:09;;;;;;;13.63;7.50;;;20.00;99.90;;;;;;5053504;28;20411;-79
2021/09/12 08:40:35;;;;;;;12.13;7.23;;;20.00;99.90;;;;;;5058948;28;20501;-78
2021/09/12 08:43:01;;;;;;;11.10;7.70;;;19.90;99.90;;;;;;5054254;28;20825;-79
2021/09/12 08:45:28;;;;;;;11.97;6.83;;;20.00;99.90;;;;;;5040902;28;20203;-78
2021/09/12 08:47:53;;;;;;;12.97;8.60;;;20.00;99.90;;;;;;5054998;28;20411;-79
2021/09/12 08:50:21;;;;;;;12.30;7.63;;;20.10;99.90;;;;;;5054641;28;20949;-77
2021/09/12 08:52:47;;;;;;;9.87;8.13;;;20.10;99.90;;;;;;5037385;28;20957;-78
2021/09/12 08:55:13;;;;;;;11.50;7.03;;;20.00;99.90;;;;;;5053276;28;20434;-79
2021/09/12 08:57:50;;;;;;;11.43;7.63;;;20.00;99.90;;;;;;5055308;28;20457;-79
2021/09/12 09:00:25;;;;;;;11.43;8.10;;;19.80;99.90;;;;;;5054920;28;20450;-78
2021/09/12 09:02:59;;;;;;;12.60;8.63;;;19.70;99.90;;;;;;5055521;28;20395;-78
2021/09/12 09:05:33;;;;;;;14.60;8.53;;;19.70;99.90;;;;;;5055609;28;20441;-79
2021/09/12 09:08:12;;;;;;;10.30;7.53;;;19.70;99.90;;;;;;5056108;28;20936;-79
2021/09/12 09:10:49;;;;;;;11.30;7.23;;;19.90;99.90;;;;;;5057374;28;20432;-79
2021/09/12 09:13:29;;;;;;;11.70;7.43;;;19.80;99.90;;;;;;5057271;28;20468;-79
2021/09/12 09:15:55;;;;;;;10.97;7.63;;;19.70;99.90;;;;;;5057747;28;20425;-78
2021/09/12 09:18:31;;;;;;;10.33;7.83;;;19.80;99.90;;;;;;5059202;28;20932;-79
2021/09/12 09:20:56;;;;;;;13.83;7.50;;;19.80;99.90;;;;;;5060977;28;20406;-80
2021/09/12 09:23:22;;;;;;;8.80;6.90;;;19.80;99.90;;;;;;5061026;28;20415;-77
2021/09/12 09:25:49;;;;;;;10.80;7.10;;;19.90;99.90;;;;;;5054862;28;20194;-78
2021/09/12 09:28:15;;;;;;;12.30;7.90;;;20.00;99.90;;;;;;5054725;28;20189;-77
2021/09/12 09:30:57;;;;;;;12.30;8.57;;;20.00;99.90;;;;;;5055318;28;20916;-79
2021/09/12 09:33:24;;;;;;;9.63;7.30;;;20.10;99.90;;;;;;5055299;28;20167;-80
2021/09/12 09:35:56;;;;;;;10.50;7.57;;;20.40;99.90;;;;;;5055239;28;20428;-77
2021/09/12 09:38:24;;;;;;;13.93;9.00;;;20.50;99.90;;;;;;5058342;28;20467;-77
2021/09/12 09:40:58;;;;;;;9.70;7.50;;;20.60;99.90;;;;;;5057299;28;20413;-79
2021/09/12 09:43:24;;;;;;;15.03;8.30;;;20.60;99.90;;;;;;5057332;28;20791;-78
2021/09/12 09:45:50;;;;;;;11.83;7.47;;;20.60;99.90;;;;;;5053138;28;20451;-78
2021/09/12 09:48:15;;;;;;;12.20;9.30;;;20.50;99.90;;;;;;5054376;28;20252;-76
2021/09/12 09:50:42;;;;;;;12.20;7.63;;;20.60;99.90;;;;;;5055254;28;20713;-80
2021/09/12 09:53:11;;;;;;;11.43;7.37;;;20.80;99.90;;;;;;5055314;28;20191;-78
2021/09/12 09:55:37;;;;;;;12.30;8.60;;;20.90;99.90;;;;;;5055934;28;20479;-78
2021/09/12 09:58:08;;;;;;;10.93;8.03;;;21.10;99.90;;;;;;5054459;28;20881;-79
2021/09/12 10:00:34;;;;;;;12.37;8.20;;;21.00;99.90;;;;;;5055628;28;20403;-79
2021/09/12 10:03:01;;;;;;;13.30;9.70;;;20.90;99.90;;;;;;5037746;28;20495;-83
2021/09/12 10:05:28;;;;;;;11.37;8.40;;;21.00;99.90;;;;;;5056599;28;20766;-80
2021/09/12 10:07:55;;;;;;;10.80;8.60;;;21.00;99.90;;;;;;5056220;28;20420;-80
2021/09/12 10:10:21;;;;;;;13.90;8.83;;;21.00;99.90;;;;;;5055665;28;20941;-78
2021/09/12 10:12:53;;;;;;;10.90;8.00;;;21.00;99.90;;;;;;5056107;28;20413;-79
2021/09/12 10:15:25;;;;;;;12.43;7.80;;;20.90;99.90;;;;;;5054882;28;20434;-78
2021/09/12 10:17:51;;;;;;;14.30;7.70;;;21.00;99.90;;;;;;5055233;28;20451;-78
2021/09/12 10:20:23;;;;;;;10.17;8.27;;;21.10;99.90;;;;;;5053556;28;20453;-78
2021/09/12 10:22:50;;;;;;;10.87;8.03;;;21.00;99.90;;;;;;5057126;28;20422;-79
2021/09/12 10:25:17;;;;;;;11.57;8.17;;;20.90;99.90;;;;;;5057780;28;20427;-80
2021/09/12 10:27:44;;;;;;;10.70;8.07;;;21.20;99.90;;;;;;5057928;28;20844;-79
2021/09/12 10:30:40;;;;;;;9.63;6.83;;;21.20;99.90;;;;;;5057724;28;20427;-79
2021/09/12 10:33:09;;;;;;;9.50;7.20;;;21.30;99.90;;;;;;5057800;28;20465;-79
2021/09/12 10:35:49;;;;;;;9.80;7.63;;;21.30;99.90;;;;;;5058208;28;20441;-79
2021/09/12 10:38:47;;;;;;;14.13;8.60;;;21.20;99.90;;;;;;5058754;28;20450;-78
2021/09/12 10:41:14;;;;;;;9.33;7.70;;;21.10;99.90;;;;;;5013427;28;20522;-78
2021/09/12 10:43:46;;;;;;;10.87;8.10;;;21.10;99.90;;;;;;5056205;28;20423;-76
2021/09/12 10:46:11;;;;;;;7.63;6.77;;;21.20;99.90;;;;;;5057281;28;20430;-77
2021/09/12 10:49:01;;;;;;;9.57;7.63;;;21.20;99.90;;;;;;5056452;28;20454;-78
2021/09/12 10:51:26;;;;;;;9.73;7.37;;;21.30;99.90;;;;;;5055918;28;20207;-77
2021/09/12 10:53:54;;;;;;;10.30;8.50;;;21.40;99.90;;;;;;5055958;28;20715;-77
2021/09/12 10:56:20;;;;;;;11.10;7.20;;;21.60;99.90;;;;;;5055135;28;20211;-78
2021/09/12 10:58:50;;;;;;;10.70;6.00;;;21.60;99.90;;;;;;5056080;28;20407;-78
2021/09/12 11:01:27;;;;;;;8.07;5.73;;;21.50;99.90;;;;;;5059263;28;20171;-77
2021/09/12 11:03:58;;;;;;;9.37;6.70;;;21.50;99.90;;;;;;5056473;28;21005;-78
2021/09/12 11:06:25;;;;;;;7.43;5.80;;;21.40;99.90;;;;;;5056264;28;20450;-79
2021/09/12 11:08:50;;;;;;;7.67;6.07;;;21.40;99.90;;;;;;5056889;28;20926;-77
2021/09/12 11:11:16;;;;;;;11.23;7.17;;;21.40;99.90;;;;;;5056730;28;20491;-77
2021/09/12 11:13:41;;;;;;;8.50;5.90;;;21.50;99.90;;;;;;5056227;28;20188;-79
2021/09/12 11:16:13;;;;;;;12.60;6.07;;;21.50;99.90;;;;;;5055550;28;20204;-78
2021/09/12 11:18:45;;;;;;;7.90;5.97;;;21.50;99.90;;;;;;5057264;28;20184;-78
2021/09/12 11:21:10;;;;;;;10.80;6.70;;;21.50;99.90;;;;;;5058582;28;20411;-78
2021/09/12 11:23:40;;;;;;;9.80;6.27;;;21.60;99.90;;;;;;5058150;28;20925;-78
2021/09/12 11:26:05;;;;;;;8.90;6.37;;;21.80;99.90;;;;;;5061614;28;20199;-79
2021/09/12 11:28:33;;;;;;;7.23;5.70;;;22.00;99.90;;;;;;5057240;28;20415;-79
2021/09/12 11:31:02;;;;;;;6.93;5.57;;;22.20;99.90;;;;;;5059653;28;20169;-78
2021/09/12 11:33:48;;;;;;;6.80;5.80;;;22.20;99.90;;;;;;5057793;28;20414;-78
2021/09/12 11:36:13;;;;;;;8.07;5.20;;;22.00;99.90;;;;;;5054557;28;20462;-79
2021/09/12 11:38:39;;;;;;;8.40;5.53;;;21.90;99.90;;;;;;5056402;28;20427;-79
2021/09/12 11:41:05;;;;;;;6.93;5.20;;;21.80;99.90;;;;;;5040461;28;20188;-80
2021/09/12 11:43:30;;;;;;;7.13;5.23;;;21.90;99.90;;;;;;5059219;28;20195;-78
2021/09/12 11:46:14;;;;;;;5.40;4.90;;;22.00;99.90;;;;;;5059563;28;21326;-79
2021/09/12 11:48:57;;;;;;;7.60;6.10;;;21.90;99.90;;;;;;5041693;28;20176;-80
2021/09/12 11:51:29;;;;;;;7.53;5.90;;;21.90;99.90;;;;;;5059788;28;20832;-79
2021/09/12 11:54:11;;;;;;;8.23;6.70;;;21.90;99.90;;;;;;5060336;28;20403;-79
2021/09/12 11:56:38;;;;;;;8.03;5.60;;;22.00;99.90;;;;;;5061378;28;20462;-79
2021/09/12 11:59:04;;;;;;;7.70;5.57;;;22.10;99.90;;;;;;5061396;28;20834;-78
2021/09/12 12:01:30;;;;;;;6.67;5.30;;;22.00;99.90;;;;;;5058556;28;20408;-79
2021/09/12 12:03:57;;;;;;;7.30;5.10;;;21.90;99.90;;;;;;5059080;28;20494;-79
2021/09/12 12:06:23;;;;;;;11.23;5.97;;;21.90;99.90;;;;;;5057784;28;20446;-78
2021/09/12 12:09:08;;;;;;;5.90;5.00;;;22.00;99.90;;;;;;5058697;28;20943;-79
2021/09/12 12:11:36;;;;;;;7.80;5.83;;;22.10;99.90;;;;;;5042743;28;20203;-79
2021/09/12 12:14:02;;;;;;;7.13;5.97;;;22.00;99.90;;;;;;5057779;28;20411;-79
2021/09/12 12:16:37;;;;;;;7.47;5.40;;;22.00;99.90;;;;;;5058324;28;20604;-80
2021/09/12 12:19:07;;;;;;;6.70;5.53;;;22.20;99.90;;;;;;5061597;28;20410;-80
2021/09/12 12:21:33;;;;;;;7.60;5.20;;;22.30;99.90;;;;;;5045629;28;20486;-79
2021/09/12 12:24:09;;;;;;;6.13;4.90;;;22.30;99.90;;;;;;5027490;28;20419;-80
2021/09/12 12:26:46;;;;;;;5.77;5.13;;;22.40;99.90;;;;;;5060549;28;20434;-79
2021/09/12 12:29:22;;;;;;;5.10;4.33;;;22.40;99.90;;;;;;5061836;28;20414;-80
2021/09/12 12:31:52;;;;;;;7.87;5.10;;;22.40;99.90;;;;;;5059933;28;20403;-79
2021/09/12 12:34:54;;;;;;;6.83;5.10;;;22.30;99.90;;;;;;5059326;28;20495;-78
2021/09/12 12:37:42;;;;;;;5.90;4.73;;;22.20;99.90;;;;;;4982381;28;20485;-80
2021/09/12 12:40:18;;;;;;;8.33;5.57;;;22.10;99.90;;;;;;5056684;28;20483;-79